Time;durP1;ratioP1;P1;durP2;ratioP2;P2;SDS_P1;SDS_P2;PMS_P1;PMS_P2;Temp;Humidity;BMP_temperature;BMP_pressure;BME280_temperature;BME280_humidity;BME280_pressure;Samples;Min_cycle;Max_cycle;Signal;HPM_P1;HPM_P2
2022/04/17 00:01:32;;;;;;;9.47;7.57;;;;;;;;;;5023221;28;20174;-53
2022/04/17 00:04:04;;;;;;;8.07;6.47;;;;;;;;;;5012428;28;20626;-53
2022/04/17 00:06:30;;;;;;;8.33;7.17;;;;;;;;;;5016886;28;20194;-53
2022/04/17 00:08:57;;;;;;;8.13;7.10;;;;;;;;;;5027756;28;20177;-52
2022/04/17 00:11:23;;;;;;;7.90;7.20;;;;;;;;;;5021862;28;20240;-53
2022/04/17 00:13:49;;;;;;;7.80;7.07;;;;;;;;;;5028421;28;20185;-52
2022/04/17 00:16:15;;;;;;;8.03;7.23;;;;;;;;;;5012033;28;20266;-53
2022/04/17 00:18:41;;;;;;;7.83;7.23;;;;;;;;;;5013051;28;20274;-53
2022/04/17 00:21:11;;;;;;;9.03;8.13;;;;;;;;;;5030894;28;20193;-52
2022/04/17 00:23:40;;;;;;;7.87;7.03;;;;;;;;;;5024093;28;20728;-52
2022/04/17 00:26:06;;;;;;;7.70;7.00;;;;;;;;;;5004776;28;20665;-52
2022/04/17 00:28:33;;;;;;;8.53;7.73;;;;;;;;;;5010678;28;20248;-52
2022/04/17 00:30:59;;;;;;;9.33;8.27;;;;;;;;;;5040167;28;20234;-52
2022/04/17 00:33:25;;;;;;;8.80;7.90;;;;;;;;;;5041063;28;20274;-53
2022/04/17 00:35:52;;;;;;;9.03;7.87;;;;;;;;;;5013541;28;20182;-52
2022/04/17 00:38:18;;;;;;;9.47;7.93;;;;;;;;;;5036928;28;20210;-52
2022/04/17 00:40:44;;;;;;;8.67;7.77;;;;;;;;;;5016143;28;20180;-52
2022/04/17 00:43:31;;;;;;;9.57;8.17;;;;;;;;;;5012373;28;20205;-53
2022/04/17 00:45:58;;;;;;;8.27;7.57;;;;;;;;;;5029474;28;20186;-52
2022/04/17 00:48:25;;;;;;;9.00;8.10;;;;;;;;;;5008475;28;20186;-52
2022/04/17 00:50:52;;;;;;;8.17;7.37;;;;;;;;;;5012999;28;20580;-54
2022/04/17 00:53:21;;;;;;;8.70;7.77;;;;;;;;;;5010272;28;20212;-54
2022/04/17 00:55:47;;;;;;;10.93;8.20;;;;;;;;;;5015440;28;20639;-53
2022/04/17 00:58:17;;;;;;;8.03;7.23;;;;;;;;;;5011388;28;20203;-54
2022/04/17 01:00:44;;;;;;;10.50;7.70;;;;;;;;;;5037032;28;20190;-53
2022/04/17 01:03:13;;;;;;;8.23;7.43;;;;;;;;;;5010638;28;20184;-53
2022/04/17 01:05:42;;;;;;;8.80;7.90;;;;;;;;;;5013110;28;20182;-52
2022/04/17 01:08:09;;;;;;;12.27;11.23;;;;;;;;;;5026379;28;20186;-52
2022/04/17 01:10:35;;;;;;;9.10;8.30;;;;;;;;;;5019030;28;20348;-53
2022/04/17 01:13:03;;;;;;;9.07;8.17;;;;;;;;;;5011019;28;20602;-52
2022/04/17 01:15:30;;;;;;;9.03;8.13;;;;;;;;;;5010940;28;20175;-52
2022/04/17 01:17:56;;;;;;;9.27;8.27;;;;;;;;;;5011829;28;20241;-52
2022/04/17 01:20:23;;;;;;;9.20;8.30;;;;;;;;;;5014128;28;20185;-52
2022/04/17 01:22:50;;;;;;;9.20;8.30;;;;;;;;;;5028805;28;21002;-52
2022/04/17 01:28:02;;;;;;;8.90;8.00;;;;;;;;;;5013348;28;20295;-52
2022/04/17 01:30:28;;;;;;;7.63;6.90;;;;;;;;;;5018883;28;20218;-52
2022/04/17 01:32:55;;;;;;;9.63;8.73;;;;;;;;;;5006670;28;20186;-52
2022/04/17 01:35:22;;;;;;;9.50;8.37;;;;;;;;;;5009729;28;20183;-52
2022/04/17 01:37:51;;;;;;;9.50;8.40;;;;;;;;;;5027047;28;20273;-52
2022/04/17 01:40:17;;;;;;;9.53;8.53;;;;;;;;;;5023877;28;20276;-52
2022/04/17 01:42:43;;;;;;;9.20;8.30;;;;;;;;;;5027033;28;20272;-53
2022/04/17 01:45:10;;;;;;;9.40;8.20;;;;;;;;;;5011766;28;20646;-52
2022/04/17 01:47:36;;;;;;;9.13;8.23;;;;;;;;;;5026122;28;20182;-52
2022/04/17 01:50:02;;;;;;;8.40;7.60;;;;;;;;;;5011485;28;20178;-52
2022/04/17 01:52:29;;;;;;;10.23;8.37;;;;;;;;;;5013070;28;20202;-51
2022/04/17 01:54:55;;;;;;;9.33;8.43;;;;;;;;;;5009708;28;20183;-52
2022/04/17 01:57:21;;;;;;;10.87;8.73;;;;;;;;;;5028183;28;20623;-53
2022/04/17 01:59:48;;;;;;;9.80;8.80;;;;;;;;;;5022495;28;20796;-53
2022/04/17 02:02:14;;;;;;;9.63;8.40;;;;;;;;;;5008411;28;20684;-53
2022/04/17 02:04:40;;;;;;;8.83;8.13;;;;;;;;;;5005993;28;20210;-52
2022/04/17 02:07:09;;;;;;;9.40;8.40;;;;;;;;;;5027230;28;20186;-52
2022/04/17 02:09:36;;;;;;;9.77;8.87;;;;;;;;;;5023973;28;20187;-52
2022/04/17 02:12:02;;;;;;;9.57;8.60;;;;;;;;;;5014467;28;20727;-52
2022/04/17 02:14:28;;;;;;;9.83;8.83;;;;;;;;;;5037311;28;20190;-52
2022/04/17 02:17:01;;;;;;;9.83;8.83;;;;;;;;;;5013280;28;20265;-52
2022/04/17 02:19:27;;;;;;;9.20;8.37;;;;;;;;;;5007307;28;20619;-52
2022/04/17 02:21:53;;;;;;;9.53;8.70;;;;;;;;;;5019588;28;20190;-52
2022/04/17 02:24:19;;;;;;;9.03;8.23;;;;;;;;;;5008288;28;20197;-53
2022/04/17 02:26:45;;;;;;;10.60;8.47;;;;;;;;;;5011358;28;20182;-52
2022/04/17 02:29:11;;;;;;;9.20;7.93;;;;;;;;;;5015550;28;20559;-53
2022/04/17 02:31:40;;;;;;;10.67;8.77;;;;;;;;;;5011777;28;20234;-52
2022/04/17 02:34:08;;;;;;;9.63;8.63;;;;;;;;;;5022926;28;20185;-53
2022/04/17 02:36:34;;;;;;;10.27;9.17;;;;;;;;;;5019863;28;20714;-53
2022/04/17 02:39:01;;;;;;;9.67;8.60;;;;;;;;;;5006419;28;20649;-53
2022/04/17 02:41:27;;;;;;;10.40;7.97;;;;;;;;;;5032991;28;20186;-53
2022/04/17 02:43:53;;;;;;;8.87;8.07;;;;;;;;;;5015834;28;20677;-53
2022/04/17 02:49:04;;;;;;;10.10;8.07;;;;;;;;;;5015196;28;20289;-52
2022/04/17 02:51:33;;;;;;;9.77;8.77;;;;;;;;;;5020048;28;20747;-52
2022/04/17 02:54:00;;;;;;;9.43;8.53;;;;;;;;;;5011350;28;20182;-53
2022/04/17 02:56:27;;;;;;;8.60;7.50;;;;;;;;;;5015769;28;20169;-53
2022/04/17 02:58:54;;;;;;;9.33;8.43;;;;;;;;;;5006984;28;20177;-52
2022/04/17 03:06:52;;;;;;;9.30;7.87;;;;;;;;;;5007609;28;20185;-53
2022/04/17 03:09:18;;;;;;;8.90;8.10;;;;;;;;;;5009325;28;20250;-53
2022/04/17 03:11:44;;;;;;;9.40;8.50;;;;;;;;;;5033095;28;20570;-52
2022/04/17 03:14:16;;;;;;;9.27;8.37;;;;;;;;;;5012320;28;20186;-53
2022/04/17 03:16:43;;;;;;;28.37;26.67;;;;;;;;;;5022322;28;20608;-52
2022/04/17 03:19:09;;;;;;;9.10;8.20;;;;;;;;;;5022853;28;20233;-52
2022/04/17 03:21:35;;;;;;;9.40;8.50;;;;;;;;;;5039099;28;20243;-52
2022/04/17 03:24:02;;;;;;;8.70;7.90;;;;;;;;;;5029646;28;20174;-53
2022/04/17 03:26:28;;;;;;;8.90;8.07;;;;;;;;;;5024989;28;20178;-53
2022/04/17 03:28:55;;;;;;;9.50;8.30;;;;;;;;;;5026370;28;20232;-52
2022/04/17 03:31:21;;;;;;;9.03;8.13;;;;;;;;;;5019272;28;20325;-53
2022/04/17 03:33:47;;;;;;;8.70;7.37;;;;;;;;;;5032550;28;20178;-53
2022/04/17 03:36:16;;;;;;;8.93;7.97;;;;;;;;;;5023293;28;20188;-53
2022/04/17 03:38:46;;;;;;;8.70;7.90;;;;;;;;;;5011666;28;20638;-53
2022/04/17 03:41:12;;;;;;;7.63;6.83;;;;;;;;;;5023554;28;20178;-53
2022/04/17 03:43:39;;;;;;;8.43;7.67;;;;;;;;;;5012282;28;20594;-53
2022/04/17 03:46:05;;;;;;;8.40;7.60;;;;;;;;;;5031512;28;20192;-52
2022/04/17 03:48:34;;;;;;;8.47;7.67;;;;;;;;;;5025133;28;20210;-52
2022/04/17 03:51:01;;;;;;;7.77;6.90;;;;;;;;;;5013590;28;20209;-53
2022/04/17 03:53:27;;;;;;;7.53;6.63;;;;;;;;;;5010479;28;20262;-53
2022/04/17 03:55:53;;;;;;;7.97;7.17;;;;;;;;;;5019357;28;20216;-53
2022/04/17 03:58:19;;;;;;;7.63;6.93;;;;;;;;;;5029292;28;20450;-53
2022/04/17 04:00:47;;;;;;;7.53;6.90;;;;;;;;;;5025002;28;20552;-53
2022/04/17 04:03:14;;;;;;;12.40;11.33;;;;;;;;;;5017036;28;20288;-53
2022/04/17 04:05:41;;;;;;;7.90;6.20;;;;;;;;;;5031286;28;20551;-53
2022/04/17 04:08:08;;;;;;;6.73;6.10;;;;;;;;;;5023948;28;20214;-53
2022/04/17 04:10:37;;;;;;;7.60;6.40;;;;;;;;;;5018825;28;20684;-53
2022/04/17 04:13:04;;;;;;;7.97;6.73;;;;;;;;;;5011966;28;20645;-53
2022/04/17 04:15:30;;;;;;;7.47;6.77;;;;;;;;;;5023909;28;20182;-53
2022/04/17 04:17:56;;;;;;;7.63;6.93;;;;;;;;;;5010112;28;20179;-53
2022/04/17 04:20:25;;;;;;;7.73;7.13;;;;;;;;;;5010040;28;20178;-53
2022/04/17 04:22:53;;;;;;;6.13;5.57;;;;;;;;;;5019339;28;20273;-52
2022/04/17 04:25:20;;;;;;;10.37;9.47;;;;;;;;;;5013815;28;20177;-52
2022/04/17 04:30:37;;;;;;;7.00;6.40;;;;;;;;;;5020557;28;20593;-53
2022/04/17 04:33:03;;;;;;;6.77;6.03;;;;;;;;;;5008451;28;20553;-53
2022/04/17 04:35:33;;;;;;;7.00;6.30;;;;;;;;;;5011002;28;20741;-52
2022/04/17 04:38:02;;;;;;;5.93;5.43;;;;;;;;;;5026183;28;20178;-52
2022/04/17 04:40:32;;;;;;;6.23;5.63;;;;;;;;;;5015161;28;20197;-53
2022/04/17 04:43:04;;;;;;;5.83;5.33;;;;;;;;;;5019431;28;20185;-53
2022/04/17 04:49:29;;;;;;;5.63;5.13;;;;;;;;;;5012645;28;20527;-52
2022/04/17 04:51:02;;;;;;;6.47;5.87;;;;;;;;;;5030020;28;20201;-53
2022/04/17 04:53:28;;;;;;;5.80;5.30;;;;;;;;;;5027732;28;20672;-53
2022/04/17 04:55:57;;;;;;;5.73;5.10;;;;;;;;;;5018037;28;20174;-53
2022/04/17 04:58:23;;;;;;;6.07;5.40;;;;;;;;;;5027170;28;20294;-52
2022/04/17 05:00:49;;;;;;;9.60;8.83;;;;;;;;;;5013252;28;20264;-53
2022/04/17 05:03:15;;;;;;;5.53;5.03;;;;;;;;;;5021089;28;20189;-53
2022/04/17 05:05:41;;;;;;;7.23;5.17;;;;;;;;;;5032933;28;20186;-53
2022/04/17 05:08:08;;;;;;;5.93;5.33;;;;;;;;;;5009873;28;20174;-53
2022/04/17 05:10:34;;;;;;;5.60;5.10;;;;;;;;;;5014962;28;20177;-53
2022/04/17 05:13:06;;;;;;;5.30;4.80;;;;;;;;;;5022982;28;20546;-53
2022/04/17 05:15:32;;;;;;;5.40;4.90;;;;;;;;;;5009638;28;20178;-53
2022/04/17 05:17:59;;;;;;;5.20;4.70;;;;;;;;;;5043437;28;20723;-53
2022/04/17 05:20:26;;;;;;;5.47;4.97;;;;;;;;;;5027644;28;20174;-54
2022/04/17 05:23:04;;;;;;;5.17;4.70;;;;;;;;;;5024886;28;20178;-53
2022/04/17 05:25:30;;;;;;;4.80;4.30;;;;;;;;;;5010381;28;20182;-52
2022/04/17 05:27:57;;;;;;;5.00;4.57;;;;;;;;;;5010882;28;20285;-53
2022/04/17 05:30:23;;;;;;;4.97;4.57;;;;;;;;;;5027057;28;20257;-52
2022/04/17 05:32:49;;;;;;;4.77;4.33;;;;;;;;;;5014770;28;20260;-53
2022/04/17 05:35:18;;;;;;;4.30;3.90;;;;;;;;;;5016316;28;20178;-53
2022/04/17 05:37:44;;;;;;;4.30;3.90;;;;;;;;;;5020526;28;20186;-53
2022/04/17 05:40:11;;;;;;;7.63;7.13;;;;;;;;;;5018324;28;20173;-53
2022/04/17 05:42:37;;;;;;;4.60;4.10;;;;;;;;;;5019921;28;20649;-53
2022/04/17 05:45:03;;;;;;;4.70;4.20;;;;;;;;;;5022150;28;20208;-53
2022/04/17 05:47:29;;;;;;;4.83;3.97;;;;;;;;;;5015499;28;20202;-53
2022/04/17 05:49:55;;;;;;;4.13;3.83;;;;;;;;;;5012249;28;20240;-52
2022/04/17 05:52:22;;;;;;;5.20;4.43;;;;;;;;;;5015277;28;20400;-53
2022/04/17 05:54:48;;;;;;;4.73;3.93;;;;;;;;;;5025444;28;20648;-53
2022/04/17 05:57:14;;;;;;;3.67;3.33;;;;;;;;;;5022312;28;20206;-53
2022/04/17 05:59:40;;;;;;;4.40;3.87;;;;;;;;;;5018032;28;20185;-53
2022/04/17 06:02:08;;;;;;;3.83;3.50;;;;;;;;;;5013061;28;20210;-52
2022/04/17 06:04:34;;;;;;;3.70;3.40;;;;;;;;;;5008458;28;20189;-53
2022/04/17 06:07:00;;;;;;;3.90;3.17;;;;;;;;;;5013810;28;20638;-52
2022/04/17 06:09:26;;;;;;;3.70;3.13;;;;;;;;;;5017186;28;20209;-53
2022/04/17 06:11:52;;;;;;;3.60;3.27;;;;;;;;;;5019642;28;20185;-52
2022/04/17 06:14:18;;;;;;;3.73;3.30;;;;;;;;;;5022527;28;20667;-52
2022/04/17 06:16:47;;;;;;;2.90;2.60;;;;;;;;;;5011302;28;20208;-52
2022/04/17 06:19:13;;;;;;;3.40;3.10;;;;;;;;;;5005990;28;20663;-53
2022/04/17 06:21:39;;;;;;;3.63;3.13;;;;;;;;;;5013660;28;20234;-52
2022/04/17 06:24:06;;;;;;;3.03;2.83;;;;;;;;;;5007434;28;20186;-52
2022/04/17 06:26:33;;;;;;;3.27;2.97;;;;;;;;;;5013217;28;20686;-52
2022/04/17 06:29:07;;;;;;;5.23;3.00;;;;;;;;;;5040441;28;20185;-52
2022/04/17 06:31:34;;;;;;;6.17;2.87;;;;;;;;;;5018610;28;20264;-51
2022/04/17 06:34:00;;;;;;;3.03;2.50;;;;;;;;;;5006368;28;20656;-54
2022/04/17 06:36:26;;;;;;;2.73;2.50;;;;;;;;;;5020978;28;20544;-52
2022/04/17 06:38:52;;;;;;;3.90;2.80;;;;;;;;;;5015284;28;20629;-53
2022/04/17 06:41:19;;;;;;;3.10;2.20;;;;;;;;;;5016561;28;20206;-52
2022/04/17 06:43:45;;;;;;;3.97;2.40;;;;;;;;;;5025349;28;20186;-52
2022/04/17 06:46:11;;;;;;;2.73;2.53;;;;;;;;;;5021356;28;20878;-52
2022/04/17 06:48:40;;;;;;;2.53;2.33;;;;;;;;;;5028135;28;20181;-52
2022/04/17 06:51:06;;;;;;;2.90;2.70;;;;;;;;;;5030324;28;20178;-52
2022/04/17 06:53:32;;;;;;;2.50;2.30;;;;;;;;;;5031826;28;20186;-52
2022/04/17 06:55:58;;;;;;;3.70;2.00;;;;;;;;;;5024773;28;20181;-53
2022/04/17 06:58:28;;;;;;;2.97;2.23;;;;;;;;;;5023589;28;20244;-52
2022/04/17 07:00:54;;;;;;;2.67;2.07;;;;;;;;;;5028906;28;20231;-51
2022/04/17 07:03:20;;;;;;;3.20;2.27;;;;;;;;;;5024095;28;20213;-52
2022/04/17 07:05:46;;;;;;;2.83;2.27;;;;;;;;;;5024893;28;20204;-52
2022/04/17 07:08:13;;;;;;;2.67;2.47;;;;;;;;;;5008525;28;20191;-52
2022/04/17 07:10:40;;;;;;;2.37;2.17;;;;;;;;;;5021150;28;20178;-53
2022/04/17 07:13:07;;;;;;;2.13;2.00;;;;;;;;;;5023852;28;20186;-52
2022/04/17 07:15:33;;;;;;;3.97;2.43;;;;;;;;;;5015527;28;20201;-51
2022/04/17 07:17:59;;;;;;;2.60;2.40;;;;;;;;;;5013503;28;20197;-52
2022/04/17 07:20:25;;;;;;;2.27;2.07;;;;;;;;;;5017654;28;20192;-53
2022/04/17 07:22:52;;;;;;;2.70;2.10;;;;;;;;;;5029500;28;20200;-53
2022/04/17 07:25:19;;;;;;;4.43;2.90;;;;;;;;;;5015891;28;20195;-53
2022/04/17 07:27:47;;;;;;;2.07;1.97;;;;;;;;;;5024042;28;20225;-53
2022/04/17 07:30:17;;;;;;;2.93;2.30;;;;;;;;;;5033605;28;21913;-53
2022/04/17 07:32:47;;;;;;;2.83;2.20;;;;;;;;;;5024999;28;20198;-53
2022/04/17 07:35:15;;;;;;;3.07;2.30;;;;;;;;;;5028153;28;20692;-53
2022/04/17 07:37:42;;;;;;;2.83;2.47;;;;;;;;;;5025804;28;20629;-53
2022/04/17 07:40:19;;;;;;;2.33;2.13;;;;;;;;;;5015554;28;20583;-53
2022/04/17 07:42:46;;;;;;;2.40;2.20;;;;;;;;;;5019153;28;20288;-53
2022/04/17 07:45:13;;;;;;;2.33;2.20;;;;;;;;;;5020112;28;20181;-53
2022/04/17 07:47:39;;;;;;;3.67;2.10;;;;;;;;;;5019876;28;20189;-53
2022/04/17 07:50:07;;;;;;;3.17;2.00;;;;;;;;;;5028266;28;20545;-53
2022/04/17 07:52:33;;;;;;;3.87;2.43;;;;;;;;;;5016060;28;20519;-52
2022/04/17 07:54:59;;;;;;;2.20;2.00;;;;;;;;;;5023515;28;20648;-52
2022/04/17 07:57:26;;;;;;;3.40;2.17;;;;;;;;;;5031707;28;20301;-53
2022/04/17 07:59:55;;;;;;;2.90;2.60;;;;;;;;;;5012480;28;20213;-53
2022/04/17 08:02:22;;;;;;;2.23;2.03;;;;;;;;;;5035236;28;20497;-53
2022/04/17 08:04:52;;;;;;;2.30;2.10;;;;;;;;;;5009415;28;20641;-53
2022/04/17 08:07:19;;;;;;;2.77;2.27;;;;;;;;;;5021207;28;20181;-53
2022/04/17 08:09:45;;;;;;;3.33;2.30;;;;;;;;;;5027385;28;20169;-52
2022/04/17 08:12:12;;;;;;;2.27;2.07;;;;;;;;;;5034229;28;20181;-52
2022/04/17 08:14:38;;;;;;;3.67;2.10;;;;;;;;;;5028913;28;20251;-51
2022/04/17 08:17:04;;;;;;;1.97;1.87;;;;;;;;;;5030633;28;20174;-52
2022/04/17 08:19:32;;;;;;;3.17;2.47;;;;;;;;;;5027569;28;20178;-53
2022/04/17 08:21:59;;;;;;;2.80;2.60;;;;;;;;;;5011853;28;20209;-53
2022/04/17 08:24:25;;;;;;;2.40;2.20;;;;;;;;;;5037998;28;20579;-53
2022/04/17 08:26:51;;;;;;;2.37;2.17;;;;;;;;;;5050440;28;20188;-53
2022/04/17 08:29:21;;;;;;;2.33;2.10;;;;;;;;;;5039347;28;20248;-52
2022/04/17 08:31:47;;;;;;;2.63;2.40;;;;;;;;;;5029033;28;20747;-52
2022/04/17 08:34:13;;;;;;;2.63;2.17;;;;;;;;;;5021231;28;20178;-53
2022/04/17 08:36:40;;;;;;;2.43;1.97;;;;;;;;;;5024877;28;20190;-53
2022/04/17 08:39:06;;;;;;;2.87;2.27;;;;;;;;;;5025666;28;20209;-53
2022/04/17 08:41:33;;;;;;;2.17;1.97;;;;;;;;;;5029394;28;20204;-52
2022/04/17 08:43:59;;;;;;;2.40;2.17;;;;;;;;;;5026654;28;20212;-53
2022/04/17 08:46:25;;;;;;;3.67;1.90;;;;;;;;;;5027956;28;20705;-52
2022/04/17 08:48:52;;;;;;;2.47;2.10;;;;;;;;;;5028747;28;20170;-52
2022/04/17 08:51:21;;;;;;;2.43;2.23;;;;;;;;;;5029774;28;20189;-52
2022/04/17 08:53:50;;;;;;;3.87;2.20;;;;;;;;;;5022838;28;20281;-53
2022/04/17 08:56:16;;;;;;;3.03;2.00;;;;;;;;;;5019273;28;20186;-52
2022/04/17 08:58:43;;;;;;;2.27;2.07;;;;;;;;;;5016471;28;20301;-52
2022/04/17 09:01:12;;;;;;;2.37;2.17;;;;;;;;;;5014200;28;20217;-52
2022/04/17 09:03:39;;;;;;;2.33;2.13;;;;;;;;;;5006991;28;20171;-52
2022/04/17 09:06:05;;;;;;;2.00;1.90;;;;;;;;;;5009219;28;20183;-53
2022/04/17 09:08:31;;;;;;;2.43;2.20;;;;;;;;;;5019376;28;20186;-52
2022/04/17 09:10:58;;;;;;;3.80;2.40;;;;;;;;;;5026811;28;20178;-52
2022/04/17 09:13:28;;;;;;;3.50;1.93;;;;;;;;;;5027671;28;20771;-53
2022/04/17 09:15:55;;;;;;;2.73;1.87;;;;;;;;;;5012237;28;20271;-53
2022/04/17 09:18:27;;;;;;;2.30;2.20;;;;;;;;;;5027746;28;20982;-51
2022/04/17 09:20:53;;;;;;;2.57;2.20;;;;;;;;;;5020888;28;20231;-52
2022/04/17 09:23:40;;;;;;;2.33;2.13;;;;;;;;;;5026778;28;20181;-53
2022/04/17 09:26:07;;;;;;;2.77;2.10;;;;;;;;;;5015332;28;20182;-53
2022/04/17 09:28:37;;;;;;;2.67;2.10;;;;;;;;;;5024599;28;20664;-53
2022/04/17 09:31:10;;;;;;;2.07;1.90;;;;;;;;;;5033342;28;20705;-52
2022/04/17 09:33:37;;;;;;;2.53;2.33;;;;;;;;;;5027179;28;20602;-52
2022/04/17 09:36:06;;;;;;;1.80;1.70;;;;;;;;;;5015124;28;20629;-53
2022/04/17 09:38:35;;;;;;;2.30;2.10;;;;;;;;;;5012577;28;20188;-53
2022/04/17 09:41:06;;;;;;;2.37;2.17;;;;;;;;;;5016957;28;20571;-52
2022/04/17 09:43:35;;;;;;;3.03;1.80;;;;;;;;;;5035307;28;20562;-51
2022/04/17 09:46:02;;;;;;;2.30;2.10;;;;;;;;;;5017467;28;20550;-52
2022/04/17 09:48:33;;;;;;;3.10;2.20;;;;;;;;;;5018742;28;20260;-51
2022/04/17 09:50:59;;;;;;;2.00;1.80;;;;;;;;;;5015186;28;20192;-51
2022/04/17 09:53:38;;;;;;;2.50;2.10;;;;;;;;;;5012002;28;20685;-52
2022/04/17 09:56:11;;;;;;;2.77;2.20;;;;;;;;;;5018751;28;20664;-52
2022/04/17 09:58:45;;;;;;;3.10;2.30;;;;;;;;;;5017403;28;20250;-51
2022/04/17 10:01:15;;;;;;;2.60;2.40;;;;;;;;;;5046855;28;20204;-51
2022/04/17 10:03:41;;;;;;;3.17;2.20;;;;;;;;;;5023646;28;20182;-51
2022/04/17 10:06:08;;;;;;;2.60;2.40;;;;;;;;;;5013674;28;20206;-51
2022/04/17 10:08:34;;;;;;;2.47;2.30;;;;;;;;;;5022495;28;20331;-52
2022/04/17 10:11:01;;;;;;;2.43;2.03;;;;;;;;;;5009400;28;20648;-51
2022/04/17 10:13:28;;;;;;;2.47;2.27;;;;;;;;;;5013256;28;20227;-52
2022/04/17 10:15:55;;;;;;;3.73;2.20;;;;;;;;;;5019373;28;20190;-52
2022/04/17 10:18:23;;;;;;;2.77;2.57;;;;;;;;;;5016464;28;20196;-52
2022/04/17 10:20:51;;;;;;;2.83;2.63;;;;;;;;;;5032346;28;20224;-51
2022/04/17 10:23:17;;;;;;;2.10;2.00;;;;;;;;;;5020316;28;20225;-51
2022/04/17 10:25:46;;;;;;;2.60;2.40;;;;;;;;;;5020388;28;20192;-51
2022/04/17 10:28:12;;;;;;;3.70;2.27;;;;;;;;;;5003614;28;20198;-51
2022/04/17 10:31:03;;;;;;;3.23;2.67;;;;;;;;;;5023465;28;20237;-51
2022/04/17 10:33:43;;;;;;;2.83;2.50;;;;;;;;;;5024292;28;20221;-52
2022/04/17 10:36:27;;;;;;;3.60;2.50;;;;;;;;;;5022646;28;20253;-51
2022/04/17 10:39:14;;;;;;;2.60;2.40;;;;;;;;;;5030996;28;20556;-51
2022/04/17 10:41:41;;;;;;;3.13;2.80;;;;;;;;;;5019502;28;20245;-52
2022/04/17 10:44:09;;;;;;;2.87;2.60;;;;;;;;;;5023868;28;20185;-52
2022/04/17 10:46:46;;;;;;;3.77;2.47;;;;;;;;;;5021620;28;20648;-52
2022/04/17 10:49:19;;;;;;;2.73;2.50;;;;;;;;;;5023113;28;20185;-52
2022/04/17 10:51:56;;;;;;;3.80;2.87;;;;;;;;;;5015407;28;20190;-52
2022/04/17 10:54:23;;;;;;;2.50;2.30;;;;;;;;;;5019308;28;20849;-51
2022/04/17 10:56:55;;;;;;;2.97;2.70;;;;;;;;;;5011481;28;20210;-52
2022/04/17 10:59:22;;;;;;;2.50;2.30;;;;;;;;;;5021861;28;20186;-52
2022/04/17 11:01:53;;;;;;;2.70;2.30;;;;;;;;;;5018129;28;20573;-53
2022/04/17 11:04:20;;;;;;;2.60;2.40;;;;;;;;;;5006299;28;20205;-50
2022/04/17 11:06:46;;;;;;;3.00;2.70;;;;;;;;;;5018329;28;20214;-52
2022/04/17 11:09:16;;;;;;;2.67;2.43;;;;;;;;;;5013084;28;20241;-51
2022/04/17 11:11:46;;;;;;;4.50;2.60;;;;;;;;;;5016313;28;20285;-51
2022/04/17 11:14:21;;;;;;;2.50;2.30;;;;;;;;;;5013273;28;20217;-52
2022/04/17 11:16:58;;;;;;;4.13;2.70;;;;;;;;;;5014524;28;20240;-52
2022/04/17 11:19:25;;;;;;;3.20;2.40;;;;;;;;;;5013443;28;20197;-51
2022/04/17 11:21:53;;;;;;;3.47;2.53;;;;;;;;;;5021065;28;20340;-51
2022/04/17 11:24:20;;;;;;;2.80;2.60;;;;;;;;;;5007166;28;20171;-54
2022/04/17 11:26:55;;;;;;;3.93;2.30;;;;;;;;;;5020992;28;20181;-51
2022/04/17 11:29:33;;;;;;;2.87;2.53;;;;;;;;;;5018661;28;20336;-51
2022/04/17 11:32:00;;;;;;;2.23;2.13;;;;;;;;;;5023584;28;20307;-51
2022/04/17 11:34:41;;;;;;;2.83;2.63;;;;;;;;;;5006975;28;20178;-51
2022/04/17 11:37:07;;;;;;;2.70;2.37;;;;;;;;;;5022653;28;20188;-51
2022/04/17 11:39:34;;;;;;;2.53;2.33;;;;;;;;;;5026746;28;20209;-51
2022/04/17 11:42:00;;;;;;;2.67;2.47;;;;;;;;;;5024880;28;20206;-51
2022/04/17 11:44:27;;;;;;;2.80;2.60;;;;;;;;;;5015737;28;20581;-51
2022/04/17 11:46:53;;;;;;;2.20;2.10;;;;;;;;;;5027974;28;20178;-52
2022/04/17 11:49:19;;;;;;;2.50;2.30;;;;;;;;;;5015134;28;20213;-53
2022/04/17 11:51:45;;;;;;;2.53;2.30;;;;;;;;;;5016407;28;20190;-51
2022/04/17 11:54:31;;;;;;;2.33;2.13;;;;;;;;;;5018862;28;20247;-52
2022/04/17 11:56:57;;;;;;;3.67;2.37;;;;;;;;;;5017250;28;20681;-51
2022/04/17 11:59:23;;;;;;;2.43;2.23;;;;;;;;;;5030848;28;20277;-51
2022/04/17 12:02:08;;;;;;;2.07;1.97;;;;;;;;;;5016485;28;20233;-51
2022/04/17 12:04:35;;;;;;;2.10;2.00;;;;;;;;;;5012010;28;20193;-51
2022/04/17 12:07:02;;;;;;;2.80;2.40;;;;;;;;;;5015521;28;20655;-51
2022/04/17 12:09:28;;;;;;;2.60;2.40;;;;;;;;;;5034417;28;20530;-49
2022/04/17 12:11:54;;;;;;;3.13;2.37;;;;;;;;;;5021873;28;20182;-50
2022/04/17 12:14:30;;;;;;;3.00;2.70;;;;;;;;;;5023293;28;20186;-51
2022/04/17 12:16:57;;;;;;;2.67;2.47;;;;;;;;;;5025809;28;20316;-51
2022/04/17 12:19:25;;;;;;;2.57;2.40;;;;;;;;;;5011199;28;20668;-51
2022/04/17 12:21:51;;;;;;;2.67;2.43;;;;;;;;;;5012489;28;20198;-50
2022/04/17 12:24:17;;;;;;;2.40;2.20;;;;;;;;;;5022363;28;20192;-51
2022/04/17 12:26:44;;;;;;;3.10;2.03;;;;;;;;;;5031192;28;20721;-51
2022/04/17 12:29:10;;;;;;;2.80;2.60;;;;;;;;;;5016769;28;20688;-51
2022/04/17 12:31:37;;;;;;;2.87;2.67;;;;;;;;;;5022795;28;20221;-51
2022/04/17 12:34:12;;;;;;;3.13;2.57;;;;;;;;;;5020187;28;20740;-51
2022/04/17 12:36:42;;;;;;;2.70;2.50;;;;;;;;;;5025749;28;20181;-51
2022/04/17 12:39:09;;;;;;;4.73;2.87;;;;;;;;;;5019269;28;20186;-51
2022/04/17 12:41:48;;;;;;;3.27;2.97;;;;;;;;;;5021984;28;20352;-51
2022/04/17 12:44:14;;;;;;;3.00;2.80;;;;;;;;;;5019440;28;20671;-51
2022/04/17 12:46:44;;;;;;;3.50;2.80;;;;;;;;;;5022271;28;20217;-51
2022/04/17 12:49:22;;;;;;;2.73;2.53;;;;;;;;;;5022080;28;21056;-51
2022/04/17 12:51:55;;;;;;;4.20;2.57;;;;;;;;;;5016712;28;20268;-51
2022/04/17 12:54:22;;;;;;;2.57;2.47;;;;;;;;;;5020376;28;20182;-52
2022/04/17 12:56:48;;;;;;;3.40;2.60;;;;;;;;;;5040256;28;20204;-51
2022/04/17 12:59:20;;;;;;;3.33;2.73;;;;;;;;;;5020363;28;20537;-52
2022/04/17 13:01:47;;;;;;;4.30;2.33;;;;;;;;;;5036528;28;20205;-51
2022/04/17 13:04:22;;;;;;;2.50;2.30;;;;;;;;;;5021749;28;20185;-51
2022/04/17 13:06:52;;;;;;;2.40;2.20;;;;;;;;;;5021814;28;20171;-52
2022/04/17 13:09:21;;;;;;;6.00;3.30;;;;;;;;;;5013488;28;20552;-52
2022/04/17 13:11:49;;;;;;;3.00;2.80;;;;;;;;;;5022884;28;20182;-52
2022/04/17 13:14:15;;;;;;;2.83;2.50;;;;;;;;;;5015442;28;20206;-52
2022/04/17 13:16:52;;;;;;;7.67;2.50;;;;;;;;;;5021638;28;20178;-52
2022/04/17 13:19:18;;;;;;;2.70;2.50;;;;;;;;;;5021016;28;20173;-52
2022/04/17 13:21:45;;;;;;;2.93;2.73;;;;;;;;;;5019361;28;20198;-52
2022/04/17 13:24:13;;;;;;;2.63;2.40;;;;;;;;;;5018190;28;20267;-52
2022/04/17 13:26:39;;;;;;;2.40;2.30;;;;;;;;;;5019045;28;20178;-52
2022/04/17 13:29:06;;;;;;;5.10;2.87;;;;;;;;;;5027397;28;20186;-52
2022/04/17 13:31:32;;;;;;;2.80;2.60;;;;;;;;;;5045552;28;20321;-52
2022/04/17 13:33:58;;;;;;;2.90;2.17;;;;;;;;;;5012365;28;20666;-51
2022/04/17 13:36:25;;;;;;;2.70;2.50;;;;;;;;;;5016581;28;20629;-51
2022/04/17 13:38:51;;;;;;;4.07;2.50;;;;;;;;;;5010280;28;20190;-51
2022/04/17 13:41:17;;;;;;;3.00;2.77;;;;;;;;;;5015828;28;20183;-50
2022/04/17 13:43:43;;;;;;;2.50;2.30;;;;;;;;;;5014788;28;20175;-51
2022/04/17 13:46:10;;;;;;;2.57;2.20;;;;;;;;;;5017888;28;20265;-51
2022/04/17 13:48:38;;;;;;;5.30;2.30;;;;;;;;;;4997738;28;20670;-52
2022/04/17 13:51:06;;;;;;;3.17;2.83;;;;;;;;;;5017214;28;20645;-51
2022/04/17 13:53:35;;;;;;;2.80;2.60;;;;;;;;;;5017179;28;20243;-52
2022/04/17 13:56:01;;;;;;;3.73;2.77;;;;;;;;;;5015880;28;20277;-51
2022/04/17 13:58:28;;;;;;;2.40;2.30;;;;;;;;;;5016245;28;20777;-50
2022/04/17 14:00:56;;;;;;;2.70;2.50;;;;;;;;;;5009953;28;20195;-50
2022/04/17 14:03:23;;;;;;;3.80;3.60;;;;;;;;;;5009281;28;20206;-50
2022/04/17 14:05:50;;;;;;;3.17;2.63;;;;;;;;;;5020853;28;20646;-51
2022/04/17 14:08:16;;;;;;;2.60;2.40;;;;;;;;;;5014768;28;20544;-50
2022/04/17 14:10:43;;;;;;;2.93;2.73;;;;;;;;;;5017511;28;20718;-50
2022/04/17 14:13:09;;;;;;;3.10;2.40;;;;;;;;;;5014474;28;20191;-49
2022/04/17 14:15:36;;;;;;;2.63;2.40;;;;;;;;;;5013015;28;20646;-49
2022/04/17 14:18:02;;;;;;;2.97;2.40;;;;;;;;;;5030522;28;20186;-49
2022/04/17 14:20:31;;;;;;;2.90;2.70;;;;;;;;;;5014625;28;20245;-50
2022/04/17 14:22:58;;;;;;;2.90;2.70;;;;;;;;;;5011111;28;20599;-52
2022/04/17 14:25:24;;;;;;;2.97;2.77;;;;;;;;;;5019229;28;20659;-49
2022/04/17 14:27:51;;;;;;;2.50;2.40;;;;;;;;;;5018925;28;20540;-50
2022/04/17 14:30:17;;;;;;;3.13;2.93;;;;;;;;;;5019477;28;20191;-50
2022/04/17 14:32:43;;;;;;;2.60;2.50;;;;;;;;;;5021633;28;20180;-50
2022/04/17 14:35:09;;;;;;;2.73;2.53;;;;;;;;;;5020212;28;20247;-49
2022/04/17 14:37:36;;;;;;;2.77;2.57;;;;;;;;;;5023668;28;20720;-49
2022/04/17 14:40:02;;;;;;;3.03;2.83;;;;;;;;;;5018907;28;20184;-49
2022/04/17 14:42:29;;;;;;;2.63;2.33;;;;;;;;;;5012505;28;20230;-49
2022/04/17 14:44:58;;;;;;;2.83;2.63;;;;;;;;;;5019754;28;20234;-49
2022/04/17 14:47:24;;;;;;;2.70;2.60;;;;;;;;;;5011779;28;20195;-49
2022/04/17 14:49:51;;;;;;;2.30;2.10;;;;;;;;;;5012728;28;20192;-51
2022/04/17 14:52:17;;;;;;;3.03;2.80;;;;;;;;;;5016408;28;20214;-49
2022/04/17 14:54:43;;;;;;;2.73;2.53;;;;;;;;;;5012356;28;20192;-49
2022/04/17 14:57:09;;;;;;;2.37;2.23;;;;;;;;;;5018870;28;20632;-48
2022/04/17 14:59:37;;;;;;;3.97;2.67;;;;;;;;;;5009551;28;20656;-49
2022/04/17 15:02:04;;;;;;;2.43;2.30;;;;;;;;;;5011055;28;20205;-48
2022/04/17 15:04:31;;;;;;;2.90;2.70;;;;;;;;;;5011220;28;20345;-49